CSAV Lonquen — A8OT2 — position and weather

sailwx.info

Track history (hours):
 
Tides and Currents Weather Stations Pressure Air Temp Water Temp Dewpoint Dewpoint Depression Visibility Wind Speed Wind Dir Waves Ship Positions

CSAV Lonquen

Last reported at 2015-Mar-29 01:31 UTC. Time now 2015-Apr-01 14:29 UTC.
Position N 33°50' E 032°24'.

Length 261 m; draft 10.5 m.

Type: Ship (hazmat cat A). MMSI: 636091501.

Date/timePositionNaut miles runAvg speedWind from/ knotsBaromVisibWave heightAir tempDewpointWater temp
2015-Mar-29 01:31N 33°50' E 032°24'1815.5
2015-Mar-29 00:19N 34°03' E 032°39'1315.6
2015-Mar-28 23:31N 34°13' E 032°49'1515.6
2015-Mar-28 22:33N 34°24' E 033°01'1413.9
2015-Mar-28 21:33N 34°38' E 033°04'3 2.9
2015-Mar-28 20:33N 34°39' E 033°01'0 0.0
2015-Mar-28 19:33N 34°39' E 033°01'0 0.0
2015-Mar-28 18:33N 34°39' E 033°01'0 0.0
2015-Mar-28 17:33N 34°39' E 033°01'0 0.0
2015-Mar-28 16:33N 34°39' E 033°01'0 0.0
2015-Mar-28 15:33N 34°39' E 033°01'0 0.0
2015-Mar-28 14:30N 34°39' E 033°01'0 0.0
2015-Mar-28 13:33N 34°39' E 033°01'0 0.0
2015-Mar-28 12:33N 34°39' E 033°01'0 0.0
2015-Mar-28 11:33N 34°39' E 033°01'0 0.0
2015-Mar-28 10:33N 34°39' E 033°01'0 0.0
2015-Mar-28 09:33N 34°39' E 033°01'0 0.0
2015-Mar-28 08:33N 34°39' E 033°01'0 0.0
2015-Mar-28 07:33N 34°39' E 033°01'0 0.0
2015-Mar-28 06:33N 34°39' E 033°01'0 0.0
2015-Mar-28 05:33N 34°39' E 033°01'0 0.0
2015-Mar-28 04:33N 34°39' E 033°01'0 0.0
2015-Mar-28 03:33N 34°39' E 033°01'0 0.0
2015-Mar-28 02:33N 34°39' E 033°01'0 0.0
2015-Mar-28 01:33N 34°39' E 033°01'0 0.0
2015-Mar-28 00:33N 34°39' E 033°01'0 0.0
2015-Mar-27 23:33N 34°39' E 033°01'0 0.0
2015-Mar-27 22:33N 34°39' E 033°01'0 0.0
2015-Mar-27 21:33N 34°39' E 033°01'0 0.0
2015-Mar-27 20:33N 34°39' E 033°01'0 0.0
2015-Mar-27 19:33N 34°39' E 033°01'0 0.0
2015-Mar-27 18:33N 34°39' E 033°01'0 0.0
2015-Mar-27 17:33N 34°39' E 033°01'0 0.0
2015-Mar-27 16:33N 34°39' E 033°01'0 0.0
2015-Mar-27 15:33N 34°39' E 033°01'0 0.0
2015-Mar-27 14:33N 34°39' E 033°01'0 0.0
2015-Mar-27 13:33N 34°39' E 033°01'2 1.7
2015-Mar-27 12:34N 34°39' E 033°03'7 7.2
2015-Mar-27 11:33N 34°33' E 033°07'2120.2
2015-Mar-27 10:31N 34°14' E 033°18'2422.4
2015-Mar-27 09:28N 33°53' E 033°31'1919.2
2015-Mar-27 08:30N 33°36' E 033°40'1616.4
2015-Mar-27 07:33N 33°22' E 033°49'4214.2
2015-Mar-27 04:33N 32°57' E 034°30'27 2.2
2015-Mar-26 16:32N 32°49' E 035°01'10 0.7
2015-Mar-26 02:32N 32°54' E 034°49'8 8.0
2015-Mar-26 01:33N 32°56' E 034°40'11519.2
2015-Mar-25 19:33N 33°15' E 032°25'2020.3
2015-Mar-25 18:33N 33°19' E 032°01'37220.4
2015-Mar-25 00:20N 34°22' E 024°40'50418.0
2015-Mar-23 20:22N 35°49' E 014°33'59911.7
2015-Mar-21 17:23N 36°56' E 002°13'1518.1
2015-Mar-21 16:33N 36°53' E 001°55'1818.2
2015-Mar-21 15:33N 36°49' E 001°32'1818.4
2015-Mar-21 14:33N 36°47' E 001°10'30718.0
2015-Mar-20 21:33N 36°02' W 005°07'2020.4
2015-Mar-20 20:33N 35°57' W 005°31'23516.5
2015-Mar-20 06:20N 37°47' W 009°51'3418.7
2015-Mar-20 04:32N 38°20' W 010°01'1818.4
2015-Mar-20 03:33N 38°37' W 010°06'1918.5
2015-Mar-20 02:33N 38°56' W 010°06'1818.1
2015-Mar-20 01:33N 39°14' W 010°06'  
Track history (hours):
 
Tides and Currents Weather Stations Pressure Air Temp Water Temp Dewpoint Dewpoint Depression Visibility Wind Speed Wind Dir Waves Ship Positions

CSAV Lonquen

Last reported at 2015-Mar-29 01:31 UTC. Time now 2015-Apr-01 14:29 UTC.
Position N 33°50' E 032°24'.

Length 261 m; draft 10.5 m.

Type: Ship (hazmat cat A). MMSI: 636091501.

Date/timePositionNaut miles runAvg speedWind from/ knotsBaromVisibWave heightAir tempDewpointWater temp
2015-Mar-29 01:31N 33°50' E 032°24'1815.5
2015-Mar-29 00:19N 34°03' E 032°39'1315.6
2015-Mar-28 23:31N 34°13' E 032°49'1515.6
2015-Mar-28 22:33N 34°24' E 033°01'1413.9
2015-Mar-28 21:33N 34°38' E 033°04'3 2.9
2015-Mar-28 20:33N 34°39' E 033°01'0 0.0
2015-Mar-28 19:33N 34°39' E 033°01'0 0.0
2015-Mar-28 18:33N 34°39' E 033°01'0 0.0
2015-Mar-28 17:33N 34°39' E 033°01'0 0.0
2015-Mar-28 16:33N 34°39' E 033°01'0 0.0
2015-Mar-28 15:33N 34°39' E 033°01'0 0.0
2015-Mar-28 14:30N 34°39' E 033°01'0 0.0
2015-Mar-28 13:33N 34°39' E 033°01'0 0.0
2015-Mar-28 12:33N 34°39' E 033°01'0 0.0
2015-Mar-28 11:33N 34°39' E 033°01'0 0.0
2015-Mar-28 10:33N 34°39' E 033°01'0 0.0
2015-Mar-28 09:33N 34°39' E 033°01'0 0.0
2015-Mar-28 08:33N 34°39' E 033°01'0 0.0
2015-Mar-28 07:33N 34°39' E 033°01'0 0.0
2015-Mar-28 06:33N 34°39' E 033°01'0 0.0
2015-Mar-28 05:33N 34°39' E 033°01'0 0.0
2015-Mar-28 04:33N 34°39' E 033°01'0 0.0
2015-Mar-28 03:33N 34°39' E 033°01'0 0.0
2015-Mar-28 02:33N 34°39' E 033°01'0 0.0
2015-Mar-28 01:33N 34°39' E 033°01'0 0.0
2015-Mar-28 00:33N 34°39' E 033°01'0 0.0
2015-Mar-27 23:33N 34°39' E 033°01'0 0.0
2015-Mar-27 22:33N 34°39' E 033°01'0 0.0
2015-Mar-27 21:33N 34°39' E 033°01'0 0.0
2015-Mar-27 20:33N 34°39' E 033°01'0 0.0
2015-Mar-27 19:33N 34°39' E 033°01'0 0.0
2015-Mar-27 18:33N 34°39' E 033°01'0 0.0
2015-Mar-27 17:33N 34°39' E 033°01'0 0.0
2015-Mar-27 16:33N 34°39' E 033°01'0 0.0
2015-Mar-27 15:33N 34°39' E 033°01'0 0.0
2015-Mar-27 14:33N 34°39' E 033°01'0 0.0
2015-Mar-27 13:33N 34°39' E 033°01'2 1.7
2015-Mar-27 12:34N 34°39' E 033°03'7 7.2
2015-Mar-27 11:33N 34°33' E 033°07'2120.2
2015-Mar-27 10:31N 34°14' E 033°18'2422.4
2015-Mar-27 09:28N 33°53' E 033°31'1919.2
2015-Mar-27 08:30N 33°36' E 033°40'1616.4
2015-Mar-27 07:33N 33°22' E 033°49'4214.2
2015-Mar-27 04:33N 32°57' E 034°30'27 2.2
2015-Mar-26 16:32N 32°49' E 035°01'10 0.7
2015-Mar-26 02:32N 32°54' E 034°49'8 8.0
2015-Mar-26 01:33N 32°56' E 034°40'11519.2
2015-Mar-25 19:33N 33°15' E 032°25'2020.3
2015-Mar-25 18:33N 33°19' E 032°01'37220.4
2015-Mar-25 00:20N 34°22' E 024°40'50418.0
2015-Mar-23 20:22N 35°49' E 014°33'59911.7
2015-Mar-21 17:23N 36°56' E 002°13'1518.1
2015-Mar-21 16:33N 36°53' E 001°55'1818.2
2015-Mar-21 15:33N 36°49' E 001°32'1818.4
2015-Mar-21 14:33N 36°47' E 001°10'30718.0
2015-Mar-20 21:33N 36°02' W 005°07'2020.4
2015-Mar-20 20:33N 35°57' W 005°31'23516.5
2015-Mar-20 06:20N 37°47' W 009°51'3418.7
2015-Mar-20 04:32N 38°20' W 010°01'1818.4
2015-Mar-20 03:33N 38°37' W 010°06'1918.5
2015-Mar-20 02:33N 38°56' W 010°06'1818.1
2015-Mar-20 01:33N 39°14' W 010°06'  

Dump ship's entire track history